sensor_id;sensor_type;location;lat;lon;timestamp;P1;durP1;ratioP1;P2;durP2;ratioP2
928;SDS011;451;47.988;7.842;2023-03-01T00:07:28;23.73;;;15.30;;
928;SDS011;451;47.988;7.842;2023-03-01T00:16:33;22.00;;;15.67;;
928;SDS011;451;47.988;7.842;2023-03-01T00:25:41;22.23;;;15.07;;
928;SDS011;451;47.988;7.842;2023-03-01T00:34:45;20.07;;;14.50;;
928;SDS011;451;47.988;7.842;2023-03-01T00:43:56;23.80;;;15.10;;
928;SDS011;451;47.988;7.842;2023-03-01T00:53:01;19.33;;;14.00;;
928;SDS011;451;47.988;7.842;2023-03-01T01:02:04;21.13;;;14.83;;
928;SDS011;451;47.988;7.842;2023-03-01T01:11:11;27.03;;;16.07;;
928;SDS011;451;47.988;7.842;2023-03-01T01:20:15;21.80;;;14.97;;
928;SDS011;451;47.988;7.842;2023-03-01T01:29:19;24.90;;;15.33;;
928;SDS011;451;47.988;7.842;2023-03-01T01:38:23;22.90;;;15.23;;
928;SDS011;451;47.988;7.842;2023-03-01T01:47:28;20.57;;;14.73;;
928;SDS011;451;47.988;7.842;2023-03-01T01:56:31;25.93;;;16.10;;
928;SDS011;451;47.988;7.842;2023-03-01T02:05:38;23.87;;;16.60;;
928;SDS011;451;47.988;7.842;2023-03-01T02:14:45;25.50;;;17.27;;
928;SDS011;451;47.988;7.842;2023-03-01T02:23:50;22.83;;;15.90;;
928;SDS011;451;47.988;7.842;2023-03-01T02:32:55;19.67;;;14.30;;
928;SDS011;451;47.988;7.842;2023-03-01T02:42:03;20.77;;;13.80;;
928;SDS011;451;47.988;7.842;2023-03-01T02:51:10;19.90;;;14.60;;
928;SDS011;451;47.988;7.842;2023-03-01T03:00:24;23.43;;;15.97;;
928;SDS011;451;47.988;7.842;2023-03-01T03:09:32;27.40;;;16.13;;
928;SDS011;451;47.988;7.842;2023-03-01T03:18:35;27.20;;;17.47;;
928;SDS011;451;47.988;7.842;2023-03-01T03:27:41;27.67;;;16.80;;
928;SDS011;451;47.988;7.842;2023-03-01T03:36:45;36.20;;;18.00;;
928;SDS011;451;47.988;7.842;2023-03-01T03:45:52;33.73;;;19.07;;
928;SDS011;451;47.988;7.842;2023-03-01T03:54:58;33.20;;;18.13;;
928;SDS011;451;47.988;7.842;2023-03-01T04:04:02;32.00;;;18.60;;
928;SDS011;451;47.988;7.842;2023-03-01T04:13:07;35.40;;;18.30;;
928;SDS011;451;47.988;7.842;2023-03-01T04:22:14;27.30;;;19.20;;
928;SDS011;451;47.988;7.842;2023-03-01T04:31:20;33.40;;;20.47;;
928;SDS011;451;47.988;7.842;2023-03-01T04:40:25;25.47;;;19.10;;
928;SDS011;451;47.988;7.842;2023-03-01T04:49:29;27.73;;;17.17;;
928;SDS011;451;47.988;7.842;2023-03-01T04:58:33;27.63;;;18.13;;
928;SDS011;451;47.988;7.842;2023-03-01T05:07:36;33.00;;;18.33;;
928;SDS011;451;47.988;7.842;2023-03-01T05:16:41;29.80;;;19.33;;
928;SDS011;451;47.988;7.842;2023-03-01T05:25:44;26.80;;;17.20;;
928;SDS011;451;47.988;7.842;2023-03-01T05:34:48;25.63;;;17.07;;
928;SDS011;451;47.988;7.842;2023-03-01T05:43:54;28.30;;;18.20;;
928;SDS011;451;47.988;7.842;2023-03-01T05:52:59;24.63;;;17.87;;
928;SDS011;451;47.988;7.842;2023-03-01T06:02:03;30.90;;;18.77;;
928;SDS011;451;47.988;7.842;2023-03-01T06:11:08;26.27;;;18.40;;
928;SDS011;451;47.988;7.842;2023-03-01T06:20:12;25.93;;;17.33;;
928;SDS011;451;47.988;7.842;2023-03-01T06:29:18;27.50;;;17.70;;
928;SDS011;451;47.988;7.842;2023-03-01T06:38:21;28.97;;;17.73;;
928;SDS011;451;47.988;7.842;2023-03-01T06:47:26;30.47;;;18.50;;
928;SDS011;451;47.988;7.842;2023-03-01T06:56:29;32.80;;;18.73;;
928;SDS011;451;47.988;7.842;2023-03-01T07:05:34;31.83;;;18.37;;
928;SDS011;451;47.988;7.842;2023-03-01T07:14:37;34.47;;;19.00;;
928;SDS011;451;47.988;7.842;2023-03-01T07:23:44;27.17;;;18.27;;
928;SDS011;451;47.988;7.842;2023-03-01T07:32:50;27.40;;;18.57;;
928;SDS011;451;47.988;7.842;2023-03-01T07:41:54;26.40;;;17.67;;
928;SDS011;451;47.988;7.842;2023-03-01T07:50:58;26.70;;;17.30;;
928;SDS011;451;47.988;7.842;2023-03-01T08:00:03;27.97;;;18.80;;
928;SDS011;451;47.988;7.842;2023-03-01T08:09:13;32.17;;;19.20;;
928;SDS011;451;47.988;7.842;2023-03-01T08:18:18;29.73;;;20.13;;
928;SDS011;451;47.988;7.842;2023-03-01T08:27:22;29.37;;;18.33;;
928;SDS011;451;47.988;7.842;2023-03-01T08:36:27;27.70;;;17.33;;
928;SDS011;451;47.988;7.842;2023-03-01T08:45:31;26.73;;;18.37;;
928;SDS011;451;47.988;7.842;2023-03-01T08:54:36;28.03;;;18.70;;
928;SDS011;451;47.988;7.842;2023-03-01T09:03:39;27.80;;;17.93;;
928;SDS011;451;47.988;7.842;2023-03-01T09:12:43;28.77;;;18.30;;
928;SDS011;451;47.988;7.842;2023-03-01T09:21:48;31.23;;;18.00;;
928;SDS011;451;47.988;7.842;2023-03-01T09:30:58;28.90;;;19.87;;
928;SDS011;451;47.988;7.842;2023-03-01T09:40:02;29.27;;;20.10;;
928;SDS011;451;47.988;7.842;2023-03-01T09:49:09;26.50;;;19.07;;
928;SDS011;451;47.988;7.842;2023-03-01T10:07:48;30.43;;;20.40;;
928;SDS011;451;47.988;7.842;2023-03-01T10:17:00;30.43;;;20.33;;
928;SDS011;451;47.988;7.842;2023-03-01T10:26:15;33.73;;;18.90;;
928;SDS011;451;47.988;7.842;2023-03-01T10:35:35;27.40;;;20.47;;
928;SDS011;451;47.988;7.842;2023-03-01T10:44:44;30.17;;;19.90;;
928;SDS011;451;47.988;7.842;2023-03-01T10:53:48;29.03;;;19.00;;
928;SDS011;451;47.988;7.842;2023-03-01T11:03:03;29.87;;;18.87;;
928;SDS011;451;47.988;7.842;2023-03-01T11:12:14;30.20;;;19.63;;
928;SDS011;451;47.988;7.842;2023-03-01T11:21:20;28.07;;;19.50;;
928;SDS011;451;47.988;7.842;2023-03-01T11:30:24;31.20;;;20.37;;
928;SDS011;451;47.988;7.842;2023-03-01T11:39:33;33.00;;;21.27;;
928;SDS011;451;47.988;7.842;2023-03-01T11:48:44;29.17;;;19.43;;
928;SDS011;451;47.988;7.842;2023-03-01T11:58:01;28.83;;;18.70;;
928;SDS011;451;47.988;7.842;2023-03-01T12:07:23;28.90;;;21.43;;
928;SDS011;451;47.988;7.842;2023-03-01T12:16:36;28.13;;;18.87;;
928;SDS011;451;47.988;7.842;2023-03-01T12:25:53;29.80;;;20.00;;
928;SDS011;451;47.988;7.842;2023-03-01T12:35:05;26.57;;;18.60;;
928;SDS011;451;47.988;7.842;2023-03-01T12:44:45;22.33;;;15.93;;
928;SDS011;451;47.988;7.842;2023-03-01T12:54:05;19.00;;;14.70;;
928;SDS011;451;47.988;7.842;2023-03-01T13:03:19;19.67;;;15.00;;
928;SDS011;451;47.988;7.842;2023-03-01T13:12:53;20.97;;;15.67;;
928;SDS011;451;47.988;7.842;2023-03-01T13:41:05;25.27;;;16.43;;
928;SDS011;451;47.988;7.842;2023-03-01T13:50:18;18.90;;;14.70;;
928;SDS011;451;47.988;7.842;2023-03-01T13:59:23;22.00;;;15.37;;
928;SDS011;451;47.988;7.842;2023-03-01T14:08:29;19.90;;;15.53;;
928;SDS011;451;47.988;7.842;2023-03-01T14:27:04;21.80;;;17.07;;
928;SDS011;451;47.988;7.842;2023-03-01T14:36:08;20.60;;;16.00;;
928;SDS011;451;47.988;7.842;2023-03-01T14:45:14;21.40;;;16.50;;
928;SDS011;451;47.988;7.842;2023-03-01T14:54:20;25.23;;;16.93;;
928;SDS011;451;47.988;7.842;2023-03-01T15:03:30;23.33;;;16.40;;
928;SDS011;451;47.988;7.842;2023-03-01T15:12:37;26.50;;;16.77;;
928;SDS011;451;47.988;7.842;2023-03-01T15:21:48;25.03;;;18.20;;
928;SDS011;451;47.988;7.842;2023-03-01T15:30:52;28.87;;;21.20;;
928;SDS011;451;47.988;7.842;2023-03-01T15:40:01;29.67;;;21.70;;
928;SDS011;451;47.988;7.842;2023-03-01T15:58:29;38.90;;;22.37;;
928;SDS011;451;47.988;7.842;2023-03-01T16:07:33;31.50;;;20.93;;
928;SDS011;451;47.988;7.842;2023-03-01T16:16:42;31.07;;;21.50;;
928;SDS011;451;47.988;7.842;2023-03-01T16:25:46;35.90;;;21.80;;
928;SDS011;451;47.988;7.842;2023-03-01T16:34:50;30.90;;;20.77;;
928;SDS011;451;47.988;7.842;2023-03-01T16:43:53;32.17;;;21.50;;
928;SDS011;451;47.988;7.842;2023-03-01T16:52:58;34.67;;;23.50;;
928;SDS011;451;47.988;7.842;2023-03-01T17:02:01;34.57;;;23.67;;
928;SDS011;451;47.988;7.842;2023-03-01T17:11:06;35.70;;;22.83;;
928;SDS011;451;47.988;7.842;2023-03-01T17:20:11;36.13;;;23.70;;
928;SDS011;451;47.988;7.842;2023-03-01T17:29:16;32.73;;;21.70;;
928;SDS011;451;47.988;7.842;2023-03-01T17:38:19;30.63;;;20.77;;
928;SDS011;451;47.988;7.842;2023-03-01T17:47:24;36.30;;;20.80;;
928;SDS011;451;47.988;7.842;2023-03-01T17:56:27;38.37;;;24.20;;
928;SDS011;451;47.988;7.842;2023-03-01T18:05:34;30.77;;;21.40;;
928;SDS011;451;47.988;7.842;2023-03-01T18:14:38;33.37;;;21.73;;
928;SDS011;451;47.988;7.842;2023-03-01T18:23:43;34.10;;;22.80;;
928;SDS011;451;47.988;7.842;2023-03-01T18:32:46;34.87;;;21.63;;
928;SDS011;451;47.988;7.842;2023-03-01T18:41:50;33.70;;;22.07;;
928;SDS011;451;47.988;7.842;2023-03-01T18:50:53;33.17;;;23.50;;
928;SDS011;451;47.988;7.842;2023-03-01T18:59:58;35.20;;;24.70;;
928;SDS011;451;47.988;7.842;2023-03-01T19:09:01;40.13;;;25.97;;
928;SDS011;451;47.988;7.842;2023-03-01T19:18:06;41.33;;;27.50;;
928;SDS011;451;47.988;7.842;2023-03-01T19:27:10;41.67;;;26.37;;
928;SDS011;451;47.988;7.842;2023-03-01T19:36:14;40.70;;;26.90;;
928;SDS011;451;47.988;7.842;2023-03-01T19:45:18;40.73;;;27.33;;
928;SDS011;451;47.988;7.842;2023-03-01T19:54:22;40.87;;;27.57;;
928;SDS011;451;47.988;7.842;2023-03-01T20:03:26;41.57;;;28.60;;
928;SDS011;451;47.988;7.842;2023-03-01T20:12:31;43.27;;;26.70;;
928;SDS011;451;47.988;7.842;2023-03-01T20:21:37;41.43;;;28.00;;
928;SDS011;451;47.988;7.842;2023-03-01T20:30:41;45.17;;;27.60;;
928;SDS011;451;47.988;7.842;2023-03-01T20:39:44;44.00;;;28.17;;
928;SDS011;451;47.988;7.842;2023-03-01T20:48:49;42.03;;;26.50;;
928;SDS011;451;47.988;7.842;2023-03-01T20:57:52;43.37;;;27.00;;
928;SDS011;451;47.988;7.842;2023-03-01T21:06:56;39.03;;;27.07;;
928;SDS011;451;47.988;7.842;2023-03-01T21:16:00;41.10;;;26.83;;
928;SDS011;451;47.988;7.842;2023-03-01T21:25:06;42.50;;;28.20;;
928;SDS011;451;47.988;7.842;2023-03-01T21:34:10;44.00;;;28.37;;
928;SDS011;451;47.988;7.842;2023-03-01T21:43:15;41.90;;;28.60;;
928;SDS011;451;47.988;7.842;2023-03-01T21:52:20;42.50;;;27.30;;
928;SDS011;451;47.988;7.842;2023-03-01T22:01:25;42.10;;;29.47;;
928;SDS011;451;47.988;7.842;2023-03-01T22:10:29;45.07;;;29.70;;
928;SDS011;451;47.988;7.842;2023-03-01T22:19:34;45.10;;;27.40;;
928;SDS011;451;47.988;7.842;2023-03-01T22:28:37;42.33;;;28.90;;
928;SDS011;451;47.988;7.842;2023-03-01T22:37:41;46.63;;;29.47;;
928;SDS011;451;47.988;7.842;2023-03-01T22:46:45;38.60;;;26.20;;
928;SDS011;451;47.988;7.842;2023-03-01T22:55:50;42.23;;;26.67;;
928;SDS011;451;47.988;7.842;2023-03-01T23:04:53;47.67;;;29.10;;
928;SDS011;451;47.988;7.842;2023-03-01T23:13:58;40.37;;;28.33;;
928;SDS011;451;47.988;7.842;2023-03-01T23:23:00;39.30;;;27.13;;
928;SDS011;451;47.988;7.842;2023-03-01T23:32:05;42.80;;;27.87;;
928;SDS011;451;47.988;7.842;2023-03-01T23:41:08;36.87;;;25.20;;
928;SDS011;451;47.988;7.842;2023-03-01T23:50:13;38.43;;;22.70;;
928;SDS011;451;47.988;7.842;2023-03-01T23:59:17;38.20;;;23.93;;
